Time;durP1;ratioP1;P1;durP2;ratioP2;P2;SDS_P1;SDS_P2;PMS_P1;PMS_P2;Temp;Humidity;BMP_temperature;BMP_pressure;BME280_temperature;BME280_humidity;BME280_pressure;Samples;Min_cycle;Max_cycle;Signal;HPM_P1;HPM_P2
2023/09/16 00:01:40;;;;;;;12.20;3.40;;;;;;;14.49;83.74;99746.23;105569;1256;72713;-23
2023/09/16 00:04:08;;;;;;;4.00;2.70;;;;;;;14.16;85.17;99753.05;105500;1256;74292;-23
2023/09/16 00:06:36;;;;;;;3.50;3.20;;;;;;;13.73;87.32;99754.52;105532;1258;73034;-23
2023/09/16 00:09:03;;;;;;;3.50;2.40;;;;;;;13.46;90.21;99758.31;105526;1256;61841;-23
2023/09/16 00:11:30;;;;;;;3.10;2.50;;;;;;;13.93;88.41;99754.66;105586;1266;61123;-22
2023/09/16 00:13:58;;;;;;;5.20;2.40;;;;;;;14.29;86.00;99753.14;105693;1255;73792;-23
2023/09/16 00:16:25;;;;;;;4.60;2.60;;;;;;;14.35;85.00;99755.10;105374;1259;74788;-23
2023/09/16 00:18:52;;;;;;;4.20;3.00;;;;;;;14.33;84.82;99757.38;105520;1260;72649;-22
2023/09/16 00:21:20;;;;;;;4.90;3.20;;;;;;;14.13;85.34;99759.04;105525;1256;60988;-23
2023/09/16 00:23:47;;;;;;;2.30;1.80;;;;;;;13.90;86.64;99762.45;105534;1267;61684;-23
2023/09/16 00:26:15;;;;;;;2.90;2.30;;;;;;;14.26;86.06;99759.06;105577;1256;73817;-23
2023/09/16 00:28:44;;;;;;;2.90;2.50;;;;;;;14.76;83.46;99759.16;105491;1257;74296;-23
2023/09/16 00:31:11;;;;;;;3.10;2.40;;;;;;;14.59;83.14;99758.63;105581;1254;72637;-23
2023/09/16 00:33:39;;;;;;;3.10;2.70;;;;;;;14.35;83.95;99764.23;105646;1254;61071;-23
2023/09/16 00:36:06;;;;;;;3.90;2.80;;;;;;;14.04;85.54;99765.06;105581;1256;61057;-23
2023/09/16 00:38:33;;;;;;;4.00;3.00;;;;;;;13.68;87.26;99766.50;105516;1256;73892;-23
2023/09/16 00:41:00;;;;;;;2.70;2.10;;;;;;;13.42;89.30;99764.40;105711;1256;74802;-23
2023/09/16 00:43:27;;;;;;;2.60;2.30;;;;;;;13.67;88.82;99762.70;105534;1254;72520;-23
2023/09/16 00:45:54;;;;;;;3.50;2.90;;;;;;;14.00;86.38;99762.83;105565;1259;61132;-23
2023/09/16 00:48:21;;;;;;;4.50;3.10;;;;;;;13.70;87.30;99763.34;105527;1255;61058;-23
2023/09/16 00:50:48;;;;;;;3.30;3.00;;;;;;;13.65;87.71;99763.21;105495;1260;73892;-23
2023/09/16 00:53:15;;;;;;;4.50;3.10;;;;;;;13.28;89.24;99760.80;105601;1257;74222;-23
2023/09/16 00:55:44;;;;;;;2.70;2.10;;;;;;;13.15;90.13;99763.92;105486;1257;72514;-23
2023/09/16 00:58:11;;;;;;;3.10;2.50;;;;;;;13.48;88.99;99764.46;105528;1261;61151;-23
2023/09/16 01:00:38;;;;;;;2.40;2.00;;;;;;;13.74;87.36;99764.29;105584;1253;61220;-23
2023/09/16 01:03:06;;;;;;;3.80;3.30;;;;;;;13.87;85.95;99763.36;105426;1260;73891;-23
2023/09/16 01:05:34;;;;;;;4.20;2.90;;;;;;;13.55;86.64;99763.16;105573;1259;74321;-22
2023/09/16 01:08:02;;;;;;;5.30;3.20;;;;;;;13.46;87.28;99761.46;105489;1260;72550;-23
2023/09/16 01:10:30;;;;;;;3.60;3.20;;;;;;;13.18;88.08;99767.34;105497;1259;61246;-23
2023/09/16 01:12:57;;;;;;;3.10;2.10;;;;;;;12.87;90.21;99765.31;105525;1257;61151;-23
2023/09/16 01:15:27;;;;;;;2.60;1.90;;;;;;;13.34;89.61;99765.23;105534;1254;73803;-21
2023/09/16 01:18:03;;;;;;;2.90;2.60;;;;;;;13.98;86.39;99762.64;105505;1267;73876;-22
2023/09/16 01:20:30;;;;;;;4.10;3.00;;;;;;;14.17;84.59;99760.84;105215;1254;73280;-23
2023/09/16 01:22:57;;;;;;;4.30;2.90;;;;;;;14.07;83.79;99764.32;105528;1257;61115;-22
2023/09/16 01:25:28;;;;;;;4.70;3.10;;;;;;;13.84;84.17;99765.52;103314;1256;2974809;-22
2023/09/16 01:27:56;;;;;;;6.80;3.40;;;;;;;13.67;84.66;99764.67;105587;1257;73860;-22
2023/09/16 01:30:24;;;;;;;2.50;1.50;;;;;;;13.48;85.73;99769.52;105500;1257;74647;-22
2023/09/16 01:32:59;;;;;;;3.60;2.20;;;;;;;13.83;85.55;99769.27;105512;1260;72337;-22
2023/09/16 01:35:29;;;;;;;3.00;2.70;;;;;;;14.06;84.12;99768.57;105306;1255;60947;-22
2023/09/16 01:37:56;;;;;;;4.70;3.90;;;;;;;14.23;83.58;99766.25;105577;1256;61118;-22
2023/09/16 01:40:23;;;;;;;5.90;3.70;;;;;;;13.96;84.61;99772.20;105560;1258;73807;-22
2023/09/16 01:42:50;;;;;;;4.90;4.00;;;;;;;13.57;87.18;99776.65;105598;1260;74827;-23
2023/09/16 01:45:17;;;;;;;3.20;2.50;;;;;;;13.53;87.79;99776.95;105883;1254;72564;-22
2023/09/16 01:47:46;;;;;;;4.70;3.30;;;;;;;13.77;87.36;99778.66;105769;1257;61073;-22
2023/09/16 01:50:13;;;;;;;4.60;3.80;;;;;;;13.93;86.23;99778.75;105704;1258;61186;-24
2023/09/16 01:52:41;;;;;;;4.90;4.00;;;;;;;14.13;85.31;99779.83;105841;1257;74356;-23
2023/09/16 01:55:08;;;;;;;4.40;3.70;;;;;;;14.26;84.92;99775.77;105776;1257;74104;-23
2023/09/16 01:57:35;;;;;;;6.60;4.20;;;;;;;13.84;86.16;99782.92;105554;1260;72397;-23
2023/09/16 02:00:05;;;;;;;3.50;3.00;;;;;;;13.91;86.69;99785.54;105597;1253;61812;-24
2023/09/16 02:02:39;;;;;;;3.80;3.30;;;;;;;14.37;85.62;99783.06;105507;1258;61144;-23
2023/09/16 02:05:07;;;;;;;3.80;3.30;;;;;;;14.89;82.99;99781.25;105562;1257;74216;-23
2023/09/16 02:07:34;;;;;;;8.30;4.40;;;;;;;14.87;82.28;99780.91;105654;1260;74380;-24
2023/09/16 02:10:03;;;;;;;6.50;5.00;;;;;;;14.46;83.52;99781.23;105586;1257;72970;-23
2023/09/16 02:12:30;;;;;;;6.10;5.50;;;;;;;14.01;86.22;99786.60;105588;1264;61246;-23
2023/09/16 02:14:57;;;;;;;6.30;4.50;;;;;;;13.73;88.44;99789.16;105569;1257;61746;-23
2023/09/16 02:17:28;;;;;;;5.40;4.40;;;;;;;14.08;88.14;99792.33;105832;1257;74365;-23
2023/09/16 02:19:55;;;;;;;8.00;5.60;;;;;;;14.41;85.71;99791.11;105818;1257;74301;-22
2023/09/16 02:22:22;;;;;;;8.70;5.20;;;;;;;14.17;86.77;99800.27;105709;1252;72454;-22
2023/09/16 02:24:49;;;;;;;6.90;6.10;;;;;;;14.07;87.10;99797.47;105705;1256;61097;-22
2023/09/16 02:27:17;;;;;;;5.60;4.40;;;;;;;13.75;88.74;99800.96;105622;1260;61163;-22
2023/09/16 02:29:44;;;;;;;4.80;4.10;;;;;;;13.85;89.57;99805.08;105590;1260;71620;-22
2023/09/16 02:32:11;;;;;;;7.90;4.70;;;;;;;14.21;87.56;99804.67;105578;1255;72122;-22
2023/09/16 02:34:38;;;;;;;8.10;6.40;;;;;;;14.29;86.74;99804.30;105506;1257;72646;-23
2023/09/16 02:37:06;;;;;;;8.40;6.30;;;;;;;13.97;87.75;99810.02;105574;1254;61220;-22
2023/09/16 02:39:34;;;;;;;7.30;4.30;;;;;;;13.71;89.57;99813.33;105557;1258;61141;-23
2023/09/16 02:42:01;;;;;;;5.00;4.00;;;;;;;13.79;89.82;99813.73;105479;1260;73698;-23
2023/09/16 02:44:29;;;;;;;6.40;5.50;;;;;;;14.28;87.92;99808.45;105874;1254;74967;-23
2023/09/16 02:46:56;;;;;;;7.60;6.20;;;;;;;13.89;88.51;99812.70;105699;1260;72433;-23
2023/09/16 02:49:26;;;;;;;8.00;6.20;;;;;;;13.91;88.99;99812.59;105543;1253;61138;-23
2023/09/16 02:51:53;;;;;;;7.80;6.50;;;;;;;13.91;89.02;99815.23;105573;1254;61064;-24
2023/09/16 02:54:20;;;;;;;5.50;4.10;;;;;;;13.93;89.67;99815.40;105755;1254;73901;-23
2023/09/16 02:56:49;;;;;;;8.00;4.70;;;;;;;14.12;87.95;99814.84;105853;1254;74440;-24
2023/09/16 02:59:16;;;;;;;7.60;5.60;;;;;;;14.41;86.81;99814.66;105857;1254;72415;-24
2023/09/16 03:01:43;;;;;;;9.90;6.60;;;;;;;14.38;86.40;99814.02;105873;1255;61142;-24
2023/09/16 03:04:10;;;;;;;8.90;7.70;;;;;;;14.23;87.07;99817.75;105629;1257;61159;-24
2023/09/16 03:06:38;;;;;;;9.30;7.50;;;;;;;14.26;87.16;99817.73;105746;1254;73716;-23
2023/09/16 03:09:05;;;;;;;6.30;4.10;;;;;;;14.07;87.78;99814.91;105861;1257;74289;-23
2023/09/16 03:11:32;;;;;;;7.70;4.50;;;;;;;14.37;87.16;99812.03;105820;1254;72531;-23
2023/09/16 03:14:00;;;;;;;6.40;5.40;;;;;;;14.73;85.06;99806.89;105608;1252;61291;-23
2023/09/16 03:16:27;;;;;;;8.80;6.90;;;;;;;14.80;84.10;99806.16;105702;1256;61134;-23
2023/09/16 03:18:57;;;;;;;7.30;6.20;;;;;;;14.67;84.74;99801.15;105630;1255;73505;-23
2023/09/16 03:21:25;;;;;;;10.20;6.60;;;;;;;14.36;85.73;99802.85;105527;1254;73331;-24
2023/09/16 03:23:56;;;;;;;5.70;4.20;;;;;;;14.27;86.68;99803.66;105487;1254;72686;-23
2023/09/16 03:26:23;;;;;;;6.30;4.50;;;;;;;14.57;86.14;99807.25;105555;1256;61003;-23
2023/09/16 03:28:53;;;;;;;7.10;4.90;;;;;;;15.18;83.98;99803.70;105491;1254;61212;-21
2023/09/16 03:31:23;;;;;;;7.80;6.00;;;;;;;15.25;82.14;99805.20;105532;1257;72400;-21
2023/09/16 03:33:50;;;;;;;8.00;7.10;;;;;;;14.91;82.89;99800.94;105553;1254;74273;-24
2023/09/16 03:36:17;;;;;;;8.20;7.30;;;;;;;14.32;86.10;99806.05;105566;1257;72437;-23
2023/09/16 03:38:50;;;;;;;11.60;7.10;;;;;;;14.10;87.58;99811.89;105583;1254;61216;-23
2023/09/16 03:41:18;;;;;;;18.80;9.50;;;;;;;14.08;88.13;99809.91;105292;1260;61031;-23
2023/09/16 03:43:55;;;;;;;22.90;13.50;;;;;;;14.70;85.98;99811.05;105675;1254;73809;-23
2023/09/16 03:46:24;;;;;;;53.40;30.00;;;;;;;15.15;83.74;99810.63;105523;1257;74392;-24
2023/09/16 03:48:51;;;;;;;31.20;18.70;;;;;;;15.31;81.97;99813.58;105513;1257;72321;-23
2023/09/16 03:51:21;;;;;;;31.60;19.40;;;;;;;14.87;83.17;99817.38;105571;1254;61258;-23
2023/09/16 03:53:50;;;;;;;64.30;35.80;;;;;;;14.53;84.94;99816.10;105512;1259;61160;-23
2023/09/16 03:56:17;;;;;;;31.10;19.20;;;;;;;14.26;86.54;99818.23;105656;1254;74123;-23
2023/09/16 03:58:44;;;;;;;22.80;14.20;;;;;;;14.00;87.88;99817.40;105404;1260;74332;-23
2023/09/16 04:01:11;;;;;;;12.60;8.70;;;;;;;14.22;87.60;99822.55;105616;1254;72282;-23
2023/09/16 04:03:38;;;;;;;31.70;19.00;;;;;;;14.68;85.74;99822.35;105457;1260;61080;-23
2023/09/16 04:06:06;;;;;;;13.20;8.80;;;;;;;14.54;84.95;99825.28;105529;1257;61169;-23
2023/09/16 04:08:33;;;;;;;14.10;10.30;;;;;;;14.22;86.97;99825.88;105733;1255;73812;-23
2023/09/16 04:11:09;;;;;;;27.60;15.70;;;;;;;14.25;87.05;99825.96;105544;1257;74403;-23
2023/09/16 04:13:37;;;;;;;30.10;18.00;;;;;;;14.20;87.43;99823.80;105473;1254;71308;-23
2023/09/16 04:16:04;;;;;;;22.00;13.50;;;;;;;14.48;86.82;99827.71;105848;1257;61264;-23
2023/09/16 04:18:31;;;;;;;15.60;10.30;;;;;;;14.96;84.21;99825.77;105703;1257;61154;-23
2023/09/16 04:20:58;;;;;;;13.30;9.10;;;;;;;14.97;83.33;99824.65;105826;1254;74422;-23
2023/09/16 04:23:25;;;;;;;14.60;10.20;;;;;;;14.88;83.72;99827.28;105869;1254;74323;-23
2023/09/16 04:25:54;;;;;;;15.80;11.60;;;;;;;14.90;83.77;99833.41;105893;1252;73119;-23
2023/09/16 04:28:22;;;;;;;10.70;8.40;;;;;;;14.80;83.71;99836.77;105673;1257;61090;-23
2023/09/16 04:30:50;;;;;;;8.10;6.10;;;;;;;14.70;84.48;99837.39;105687;1259;61106;-23
2023/09/16 04:33:19;;;;;;;13.60;8.20;;;;;;;15.21;83.18;99841.90;105707;1254;73632;-23
2023/09/16 04:35:48;;;;;;;49.80;23.40;;;;;;;15.14;81.80;99841.46;105691;1254;74200;-23
2023/09/16 04:38:16;;;;;;;34.40;19.10;;;;;;;14.81;83.43;99843.06;105706;1254;72482;-23
2023/09/16 04:40:45;;;;;;;38.00;21.60;;;;;;;14.67;84.71;99843.45;105505;1254;61102;-23
2023/09/16 04:43:13;;;;;;;33.90;18.50;;;;;;;14.78;84.39;99846.15;105522;1257;61176;-23
2023/09/16 04:45:44;;;;;;;24.70;13.30;;;;;;;14.69;84.16;99844.14;105567;1255;73762;-23
2023/09/16 04:48:15;;;;;;;11.30;8.10;;;;;;;14.65;84.79;99844.59;105600;1258;74395;-23
2023/09/16 04:50:43;;;;;;;14.60;9.20;;;;;;;15.17;83.60;99845.77;105449;1254;72519;-23
2023/09/16 04:53:10;;;;;;;18.80;10.60;;;;;;;15.55;81.05;99847.13;105561;1254;61042;-24
2023/09/16 04:55:38;;;;;;;25.60;14.40;;;;;;;15.73;80.22;99850.46;105523;1257;61144;-23
2023/09/16 04:58:05;;;;;;;19.60;13.00;;;;;;;15.49;80.07;99848.05;105496;1254;74323;-23
2023/09/16 05:00:33;;;;;;;24.90;15.10;;;;;;;15.02;82.09;99850.38;105539;1253;74141;-23
2023/09/16 05:03:02;;;;;;;35.00;20.80;;;;;;;14.62;84.67;99851.54;105569;1255;71019;-23
2023/09/16 05:05:32;;;;;;;17.00;10.20;;;;;;;14.72;84.93;99852.81;105232;1257;61675;-23
2023/09/16 05:07:59;;;;;;;15.20;9.10;;;;;;;15.16;83.79;99853.36;105458;1259;61160;-23
2023/09/16 05:10:26;;;;;;;11.80;8.30;;;;;;;15.41;81.22;99855.05;105684;1257;73665;-23
2023/09/16 05:12:54;;;;;;;12.40;7.70;;;;;;;15.58;80.48;99851.10;105817;1254;74246;-23
2023/09/16 05:15:26;;;;;;;9.40;7.70;;;;;;;15.45;80.69;99852.09;105560;1257;72389;-23
2023/09/16 05:17:53;;;;;;;9.30;7.50;;;;;;;14.85;82.17;99856.05;105619;1254;61052;-23
2023/09/16 05:20:20;;;;;;;12.40;7.40;;;;;;;14.44;84.98;99863.33;105798;1257;61157;-23
2023/09/16 05:22:48;;;;;;;6.10;4.30;;;;;;;14.62;84.73;99861.87;105725;1257;74062;-23
2023/09/16 05:25:16;;;;;;;10.60;6.70;;;;;;;14.76;83.79;99861.19;105766;1254;74244;-23
2023/09/16 05:27:43;;;;;;;31.50;19.10;;;;;;;14.93;82.91;99861.11;105878;1254;72632;-23
2023/09/16 05:30:11;;;;;;;23.70;14.80;;;;;;;15.37;81.50;99864.52;105832;1254;61128;-23
2023/09/16 05:32:38;;;;;;;34.10;19.60;;;;;;;15.11;81.09;99867.27;105560;1260;61847;-23
2023/09/16 05:35:07;;;;;;;105.30;51.00;;;;;;;14.49;84.30;99873.77;105658;1254;73821;-23
2023/09/16 05:37:35;;;;;;;28.40;14.60;;;;;;;14.80;84.78;99872.95;105341;1262;74365;-23
2023/09/16 05:40:02;;;;;;;10.60;7.00;;;;;;;14.96;83.47;99874.52;105507;1254;72752;-23
2023/09/16 05:42:30;;;;;;;8.80;5.30;;;;;;;15.60;82.46;99876.46;105561;1252;61059;-23
2023/09/16 05:45:02;;;;;;;9.00;6.00;;;;;;;16.20;78.92;99877.91;105519;1256;61172;-23
2023/09/16 05:47:32;;;;;;;13.60;9.40;;;;;;;16.10;77.36;99877.65;105514;1257;73949;-23
2023/09/16 05:49:59;;;;;;;10.10;7.40;;;;;;;15.89;77.75;99876.13;105821;1254;74087;-23
2023/09/16 05:52:26;;;;;;;16.00;10.40;;;;;;;15.82;78.63;99876.59;105787;1254;73849;-23
2023/09/16 05:54:54;;;;;;;13.80;8.70;;;;;;;15.31;79.66;99878.13;105629;1254;61041;-23
2023/09/16 05:57:21;;;;;;;22.00;14.10;;;;;;;15.14;80.86;99881.02;105546;1257;61093;-23
2023/09/16 05:59:48;;;;;;;11.50;8.10;;;;;;;15.17;81.52;99883.04;105706;1254;73612;-23
2023/09/16 06:02:17;;;;;;;12.00;8.10;;;;;;;15.50;80.41;99880.33;105866;1257;74272;-23
2023/09/16 06:04:44;;;;;;;9.00;6.30;;;;;;;16.13;77.51;99882.23;105629;1254;72726;-23
2023/09/16 06:07:11;;;;;;;18.40;10.50;;;;;;;16.24;76.93;99885.66;105727;1254;61153;-23
2023/09/16 06:09:39;;;;;;;19.80;12.30;;;;;;;16.00;77.86;99886.57;105730;1257;61109;-23
2023/09/16 06:12:06;;;;;;;9.90;7.50;;;;;;;16.01;77.20;99889.25;105609;1254;73804;-23
2023/09/16 06:14:34;;;;;;;16.80;11.50;;;;;;;15.89;77.44;99888.78;105582;1257;74272;-23
2023/09/16 06:17:01;;;;;;;13.40;8.40;;;;;;;15.12;80.17;99890.83;105618;1254;72389;-23
2023/09/16 06:19:28;;;;;;;22.00;13.30;;;;;;;14.86;82.04;99894.62;105624;1254;61929;-23
2023/09/16 06:21:56;;;;;;;13.60;8.20;;;;;;;15.45;81.04;99890.92;105487;1254;61125;-23
2023/09/16 06:24:24;;;;;;;13.90;9.20;;;;;;;16.05;78.50;99890.88;105533;1254;73625;-23
2023/09/16 06:26:52;;;;;;;12.30;8.50;;;;;;;16.28;77.23;99895.27;105571;1255;74417;-23
2023/09/16 06:29:20;;;;;;;26.70;11.10;;;;;;;16.24;76.80;99896.98;105496;1254;72577;-23
2023/09/16 06:31:47;;;;;;;28.00;16.80;;;;;;;16.13;77.35;99901.39;105522;1254;61191;-23
2023/09/16 06:34:15;;;;;;;14.70;10.30;;;;;;;15.99;77.74;99902.94;105549;1257;61207;-23
2023/09/16 06:36:42;;;;;;;12.50;7.20;;;;;;;15.85;78.35;99904.70;105473;1254;73909;-23
2023/09/16 06:39:11;;;;;;;12.50;7.30;;;;;;;16.41;76.90;99903.20;105601;1254;74667;-23
2023/09/16 06:41:39;;;;;;;13.20;9.80;;;;;;;17.00;75.12;99906.14;105688;1254;72464;-23
2023/09/16 06:44:12;;;;;;;14.40;9.80;;;;;;;16.94;73.87;99907.41;105628;1253;61179;-23
2023/09/16 06:46:40;;;;;;;17.50;11.80;;;;;;;16.74;74.90;99910.45;105528;1257;62297;-23
2023/09/16 06:49:08;;;;;;;11.20;9.10;;;;;;;16.14;76.39;99912.33;105713;1256;73621;-23
2023/09/16 06:51:35;;;;;;;12.40;9.10;;;;;;;16.06;77.23;99913.36;105525;1257;74178;-23
2023/09/16 06:54:02;;;;;;;12.30;8.70;;;;;;;16.17;76.98;99916.03;105523;1254;72520;-23
2023/09/16 06:56:30;;;;;;;8.20;6.50;;;;;;;16.24;77.46;99921.76;105704;1252;61869;-23
2023/09/16 06:58:59;;;;;;;9.30;6.70;;;;;;;16.68;76.28;99921.77;105524;1256;61178;-23
2023/09/16 07:01:26;;;;;;;13.00;7.50;;;;;;;17.34;73.69;99923.30;105586;1253;73774;-23
2023/09/16 07:03:53;;;;;;;11.20;7.30;;;;;;;17.62;72.81;99923.94;105534;1257;74310;-23
2023/09/16 07:06:20;;;;;;;10.60;8.90;;;;;;;17.59;71.99;99918.97;105534;1254;72624;-24
2023/09/16 07:08:47;;;;;;;8.80;7.90;;;;;;;17.51;72.66;99916.73;105526;1254;61113;-23
2023/09/16 07:11:17;;;;;;;11.60;9.10;;;;;;;17.40;72.93;99916.95;105493;1257;61183;-22
2023/09/16 07:13:44;;;;;;;11.70;8.80;;;;;;;17.11;73.32;99919.87;105693;1254;72847;-23
2023/09/16 07:16:12;;;;;;;11.60;9.70;;;;;;;17.25;73.37;99922.33;105599;1254;74259;-23
2023/09/16 07:18:40;;;;;;;14.60;10.70;;;;;;;17.30;73.13;99923.83;105552;1257;71501;-23
2023/09/16 07:21:07;;;;;;;17.10;11.10;;;;;;;16.89;74.44;99929.11;105524;1254;61884;-23
2023/09/16 07:23:34;;;;;;;13.10;9.50;;;;;;;17.10;74.85;99933.73;105475;1260;61172;-23
2023/09/16 07:26:01;;;;;;;20.00;13.10;;;;;;;17.92;71.85;99934.20;105609;1255;73866;-23
2023/09/16 07:28:28;;;;;;;12.70;9.50;;;;;;;18.18;70.14;99934.66;105553;1257;74547;-23
2023/09/16 07:30:56;;;;;;;17.40;12.40;;;;;;;18.07;70.68;99938.86;105590;1254;72627;-23
2023/09/16 07:33:24;;;;;;;15.50;9.80;;;;;;;18.18;70.33;99943.11;105511;1253;61130;-23
2023/09/16 07:35:51;;;;;;;14.60;11.00;;;;;;;18.03;69.61;99944.70;105677;1257;61115;-23
2023/09/16 07:38:19;;;;;;;12.50;8.60;;;;;;;17.81;70.49;99947.36;105301;1254;73524;-23
2023/09/16 07:40:46;;;;;;;10.40;8.00;;;;;;;17.93;70.68;99948.82;105581;1254;74265;-23
2023/09/16 07:43:13;;;;;;;10.80;8.70;;;;;;;17.96;70.66;99952.89;105573;1254;72512;-23
2023/09/16 07:45:41;;;;;;;12.80;8.90;;;;;;;18.00;70.56;99954.83;105523;1253;61208;-23
2023/09/16 07:48:09;;;;;;;12.70;8.30;;;;;;;17.41;71.84;99959.41;105556;1253;61198;-23
2023/09/16 07:50:36;;;;;;;15.30;9.70;;;;;;;17.41;73.03;99957.15;105521;1254;73909;-23
2023/09/16 07:53:03;;;;;;;11.10;8.10;;;;;;;18.32;71.10;99959.80;105551;1253;74404;-23
2023/09/16 07:55:30;;;;;;;11.90;8.90;;;;;;;18.65;69.09;99959.75;105818;1254;72511;-23
2023/09/16 07:57:57;;;;;;;23.50;14.20;;;;;;;18.20;68.82;99961.15;105860;1252;61150;-23
2023/09/16 08:00:25;;;;;;;16.20;11.70;;;;;;;17.97;70.37;99962.52;105884;1257;61096;-23
2023/09/16 08:02:52;;;;;;;33.40;18.20;;;;;;;17.48;71.01;99962.62;105657;1254;73796;-23
2023/09/16 08:05:19;;;;;;;18.50;12.40;;;;;;;17.51;72.24;99961.12;105670;1254;74420;-23
2023/09/16 08:07:46;;;;;;;19.40;12.60;;;;;;;17.87;71.31;99958.95;105571;1254;72531;-23
2023/09/16 08:10:13;;;;;;;13.90;9.60;;;;;;;17.73;71.24;99953.98;105546;1254;61089;-23
2023/09/16 08:12:41;;;;;;;11.40;8.70;;;;;;;17.94;70.56;99957.52;105719;1252;61059;-23
2023/09/16 08:15:08;;;;;;;20.10;13.70;;;;;;;17.79;70.53;99951.27;105840;1254;73753;-23
2023/09/16 08:17:39;;;;;;;13.60;10.10;;;;;;;17.40;71.91;99948.46;105634;1254;73316;-23
2023/09/16 08:20:07;;;;;;;12.10;8.30;;;;;;;17.58;72.23;99947.14;105520;1254;72560;-23
2023/09/16 08:22:35;;;;;;;5.00;4.50;;;;;;;17.95;71.04;99945.52;105573;1259;61784;-23
2023/09/16 08:25:03;;;;;;;7.10;5.60;;;;;;;18.83;69.44;99946.08;105551;1256;61154;-23
2023/09/16 08:27:31;;;;;;;20.90;14.40;;;;;;;19.12;65.73;99945.77;105230;1254;73696;-23
2023/09/16 08:29:59;;;;;;;18.70;11.10;;;;;;;18.46;67.67;99941.87;105544;1254;74713;-23
2023/09/16 08:32:28;;;;;;;11.60;8.10;;;;;;;18.84;66.99;99940.05;105579;1254;72517;-23
2023/09/16 08:34:56;;;;;;;12.80;6.90;;;;;;;18.52;68.00;99941.31;105532;1254;61108;-23
2023/09/16 08:37:23;;;;;;;9.60;7.90;;;;;;;18.96;67.10;99943.10;105589;1256;61166;-23
2023/09/16 08:39:50;;;;;;;12.30;7.20;;;;;;;18.87;67.10;99942.84;105727;1254;73649;-23
2023/09/16 08:42:23;;;;;;;25.70;16.30;;;;;;;19.11;66.74;99940.79;105645;1254;74310;-23
2023/09/16 08:44:51;;;;;;;10.50;7.70;;;;;;;18.17;68.87;99936.45;105561;1254;72308;-23
2023/09/16 08:47:27;;;;;;;8.80;6.80;;;;;;;18.30;69.25;99934.88;105687;1253;61099;-23
2023/09/16 08:49:57;;;;;;;9.60;6.70;;;;;;;18.80;67.88;99933.77;105669;1252;61146;-23
2023/09/16 08:52:24;;;;;;;8.90;7.00;;;;;;;18.82;67.18;99933.32;105717;1259;73658;-23
2023/09/16 08:54:51;;;;;;;9.90;7.30;;;;;;;18.74;67.51;99931.16;105833;1257;74340;-23
2023/09/16 08:57:19;;;;;;;9.10;6.70;;;;;;;18.88;67.56;99934.53;105950;1254;72728;-23
2023/09/16 08:59:46;;;;;;;13.20;9.70;;;;;;;18.43;68.62;99934.23;105491;1259;61160;-23
2023/09/16 09:02:13;;;;;;;15.80;10.60;;;;;;;18.38;68.96;99932.98;105525;1257;61118;-23
2023/09/16 09:04:42;;;;;;;11.70;7.70;;;;;;;18.70;67.79;99933.01;105600;1254;73864;-23
2023/09/16 09:07:09;;;;;;;8.60;6.50;;;;;;;19.18;66.14;99930.45;105496;1254;73106;-23
2023/09/16 09:09:36;;;;;;;20.10;12.10;;;;;;;19.06;66.02;99929.48;105238;1254;72905;-23
2023/09/16 09:12:04;;;;;;;9.60;7.60;;;;;;;18.71;66.82;99925.86;105533;1253;61106;-23
2023/09/16 09:14:32;;;;;;;11.00;6.90;;;;;;;18.72;67.12;99927.02;105580;1254;61067;-23
2023/09/16 09:17:00;;;;;;;7.80;6.40;;;;;;;19.27;66.07;99925.73;105299;1254;73928;-22
2023/09/16 09:19:28;;;;;;;34.20;22.40;;;;;;;19.71;64.89;99927.24;105577;1256;74424;-23
2023/09/16 09:21:56;;;;;;;10.90;6.90;;;;;;;19.83;63.49;99929.60;105528;1257;72390;-23
2023/09/16 09:24:24;;;;;;;8.30;6.80;;;;;;;20.02;61.55;99930.79;105244;1254;62567;-22
2023/09/16 09:26:51;;;;;;;15.40;10.20;;;;;;;20.49;61.82;99927.73;105655;1254;61083;-22
2023/09/16 09:29:18;;;;;;;11.20;5.00;;;;;;;20.98;60.48;99928.74;105758;1254;73631;-23
2023/09/16 09:31:45;;;;;;;6.00;5.20;;;;;;;21.18;58.67;99927.51;105616;1254;74233;-23
2023/09/16 09:34:17;;;;;;;7.00;5.50;;;;;;;21.10;58.28;99926.81;105602;1254;72793;-23
2023/09/16 09:36:46;;;;;;;5.60;5.00;;;;;;;21.10;58.79;99924.19;105552;1254;61172;-23
2023/09/16 09:39:13;;;;;;;5.90;4.80;;;;;;;21.14;58.22;99919.35;105575;1257;61211;-22
2023/09/16 09:41:49;;;;;;;10.80;5.90;;;;;;;21.20;57.09;99919.37;105824;1254;73628;-23
2023/09/16 09:44:16;;;;;;;4.50;4.10;;;;;;;21.05;56.89;99913.70;105539;1254;74141;-23
2023/09/16 09:46:43;;;;;;;5.90;4.30;;;;;;;21.23;57.16;99914.27;105837;1254;72600;-24
2023/09/16 09:49:12;;;;;;;5.50;4.90;;;;;;;21.11;57.36;99911.77;105502;1254;61234;-23
2023/09/16 09:51:39;;;;;;;5.10;4.10;;;;;;;21.03;57.27;99910.19;105499;1254;60999;-23
2023/09/16 09:54:10;;;;;;;4.40;4.00;;;;;;;21.02;57.13;99910.70;105672;1254;73699;-23
2023/09/16 09:56:37;;;;;;;4.80;4.30;;;;;;;20.95;56.88;99911.80;105525;1254;74386;-23
2023/09/16 09:59:04;;;;;;;4.90;4.20;;;;;;;20.84;57.34;99910.63;105730;1254;72610;-23
2023/09/16 10:01:32;;;;;;;4.50;4.00;;;;;;;20.80;57.08;99909.52;105521;1254;61159;-23
2023/09/16 10:04:02;;;;;;;5.50;4.20;;;;;;;20.76;55.43;99907.17;105493;1253;61049;-23
2023/09/16 10:06:30;;;;;;;5.00;4.20;;;;;;;20.80;55.78;99906.86;105415;1254;73722;-23
2023/09/16 10:08:57;;;;;;;5.50;4.00;;;;;;;21.02;56.22;99907.48;105646;1253;74172;-23
2023/09/16 10:11:28;;;;;;;6.20;4.50;;;;;;;21.16;56.00;99908.55;105658;1254;72638;-23
2023/09/16 10:13:55;;;;;;;5.10;4.60;;;;;;;21.08;56.03;99909.74;105882;1252;61131;-23
2023/09/16 10:16:22;;;;;;;6.20;4.70;;;;;;;20.93;56.55;99906.69;105580;1252;61162;-23
2023/09/16 10:18:50;;;;;;;5.80;4.10;;;;;;;20.93;57.09;99907.96;105542;1255;73912;-23
2023/09/16 10:21:18;;;;;;;7.00;4.10;;;;;;;20.90;57.03;99905.27;105496;1254;74206;-23
2023/09/16 10:23:46;;;;;;;5.10;4.60;;;;;;;20.78;57.11;99907.63;105485;1255;72056;-24
2023/09/16 10:26:12;;;;;;;4.60;4.20;;;;;;;20.78;57.11;99906.92;105575;1254;61118;-23
2023/09/16 10:28:46;;;;;;;7.70;4.60;;;;;;;21.00;56.56;99902.07;105822;1254;61198;-23
2023/09/16 10:31:13;;;;;;;8.80;5.60;;;;;;;21.17;56.19;99902.39;105585;1257;73607;-23
2023/09/16 10:33:41;;;;;;;5.10;4.60;;;;;;;21.38;55.18;99899.68;105807;1254;74289;-23
2023/09/16 10:36:09;;;;;;;5.40;4.00;;;;;;;21.62;55.04;99902.85;105717;1252;72462;-23
2023/09/16 10:38:36;;;;;;;6.00;4.60;;;;;;;22.03;53.28;99902.37;105559;1253;61080;-24
2023/09/16 10:41:06;;;;;;;5.30;4.00;;;;;;;22.20;52.18;99903.65;105584;1254;61058;-23
2023/09/16 10:43:33;;;;;;;8.40;4.40;;;;;;;21.98;52.07;99904.54;105721;1254;73542;-23
2023/09/16 10:48:38;;;;;;;4.90;3.70;;;;;;;21.67;52.61;99901.19;102657;1295;600288;-21
2023/09/16 10:51:08;;;;;;;5.20;3.40;;;;;;;21.92;52.51;99899.78;104870;1267;61088;-21
2023/09/16 10:53:40;;;;;;;6.20;3.80;;;;;;;22.03;51.07;99897.14;104760;1269;61146;-22
2023/09/16 10:56:25;;;;;;;4.00;3.30;;;;;;;22.24;50.86;99899.39;104883;1263;71489;-22
2023/09/16 10:59:00;;;;;;;3.90;3.40;;;;;;;22.36;50.51;99896.47;104655;1276;74553;-21
2023/09/16 11:01:48;;;;;;;5.40;3.40;;;;;;;22.47;50.99;99899.41;102576;1272;3188537;-21
2023/09/16 11:04:18;;;;;;;7.40;3.40;;;;;;;22.54;49.86;99892.58;104948;1267;60997;-21
2023/09/16 11:06:52;;;;;;;2.70;2.50;;;;;;;22.41;50.29;99894.23;105099;1263;61176;-22
2023/09/16 11:09:21;;;;;;;4.40;3.30;;;;;;;22.27;50.68;99895.31;105072;1265;71234;-21
2023/09/16 11:11:48;;;;;;;2.90;2.60;;;;;;;21.78;51.67;99894.83;105081;1269;74346;-21
2023/09/16 11:14:19;;;;;;;3.60;3.10;;;;;;;21.34;53.01;99892.27;104846;1264;72638;-22
2023/09/16 11:16:51;;;;;;;3.80;3.30;;;;;;;21.21;54.63;99890.27;105257;1263;61122;-21
2023/09/16 11:19:26;;;;;;;7.50;3.40;;;;;;;21.08;55.40;99895.35;105187;1263;61115;-21
2023/09/16 11:21:54;;;;;;;4.30;3.50;;;;;;;20.71;56.50;99892.90;105474;1263;71959;-21
2023/09/16 11:24:22;;;;;;;4.30;3.10;;;;;;;20.63;57.13;99891.43;105595;1257;73371;-21
2023/09/16 11:26:50;;;;;;;4.00;3.00;;;;;;;20.66;56.79;99890.09;105263;1261;71506;-22